Aérodrome :
LOGIN :

S'inscrire | Disclaimer

   EN    FR    IT 

 










Légende :    VFR   VFR Marginal   IFR   IFR Intensif   IFR Très Intensif
Visi : 
Plafond : 
>= 8 km
>= 3000ft
5 à 8 km
1000 à 3000 ft
1500m à 5 km
500 à 1000 ft
800 à 1500m
200 à 500 ft
< 800m
< 200 ft
Symboles :   Orages  Brouillard  Fortes neiges  Fortes précipitations  Vent > 20 kt
SIGMETs :   Divers  Orages  Givrage  Turbulence  Onde Orograph.  Cendres Volcan.







- Altitude de l'aérodrome : 574 ft
- Code IATA : TEQ


LTBU - Corlu

DERNIER METAR :
  • 250650Z 01017KT 9999 SCT025 28/19 Q1016 RMK RWY22 04016KT

METARs EXPIRÉS :
  • 250620Z 01014KT 9999 SCT023 27/21 Q1016 RMK RWY22 04013KT 010V070
  • 250550Z 01017KT 9999 SCT022 27/21 Q1016 RMK RWY22 04015KT
  • 250520Z 02015KT 9999 SCT022 27/21 Q1016 RMK RWY22 04014KT
  • 250450Z 02010KT 9999 SCT022 25/22 Q1016 RMK RWY22 04010KT
  • 250420Z 01010KT 9999 SCT025 25/22 Q1016 RMK RWY22 04009KT

TAF TAF LTBU
Valide du 25 à 06h jusqu'au 26 à 06h UTC


250440Z 2506/2606 02013KT 9999 SCT025
TEMPO 2509/2512 01017G27KT
BECMG 2511/2514 CAVOK
BECMG 2521/2524 01015G25KT SCT035
Pas de NOTAMs connus pour ce terrain.



MET'MAP, la Météo Aéronautique d'un coup d'oeil ! - Copyright ORBIFLY Décembre 2007 - Disclaimer

ORBIFLY MET'MAP TEAM :

Programmation & Développement : Alexandra Zaïnal
Conception & Développement : Baudouin d'Aumeries
Co-Programmation & Développement : Marc-Olivier Méhu
Soutien technique & logistique : Manuel Goepfert

Contact : metmap@orbifly.com




SOURCES & CREDITS :

   NOAA